Tiempo atmosférico en la estación meteorológica de Puerto Alto del León, Madrid (1532 m.)



Fecha
DESCASC
Temp. máxima en grados centígrados (hora)
DESCASC
Temp. mínima en grados centígrados (hora)
DESCASC
Temp. media en grados centígrados
DESCASC
Racha de viento máxima en m/sg (hora)
DESCASC
Velocidad máxima media en intervalos de 10 minutos(hora)
DESCASC
Precipitaciones diarias en mm
DESCASC
Precipitaciones de 00:00 a 06:00 en mm
DESCASC
Precipitaciones de 06:00 a 12:00 en mm
DESCASC
Precipitaciones de 12:00 a 18:00 en mm
DESCASC
Precipitaciones de 18:00 a 24:00 en mm
DESCASC
22-01-2020 0.5 (16:50) -1.5 (10:00) -0.5 14.17 (04:30) 7.22 (04:40) 1 0 0.9 0 0.1
21-01-2020 0.6 (19:00) -5.3 (05:30) -2.4 -- (--) -- (--) 10.1 1.6 1.5 6.2 0.8
20-01-2020 -1.5 (23:20) -9.4 (08:40) -5.4 -- (--) -- (--) 2.8 0 0 1 1.8
19-01-2020 0 (00:00) -7.3 (-00:0) -3.7 18.89 (00:20) 12.5 (00:40) 1.3 1.2 0.1 0 0
18-01-2020 3.5 (20:20) -1.2 (-00:0) 1.1 21.67 (20:10) 13.06 (20:30) 2.8 0 1.3 0.5 1
17-01-2020 4.5 (15:50) -1 (-00:0) 1.8 18.06 (12:00) 12.22 (11:50) 0.4 0 0.4 0 0
16-01-2020 4.1 (04:00) 1.4 (00:00) 2.7 11.39 (14:30) 6.67 (19:40) 1.9 0 1.7 0.1 0.1
15-01-2020 3 (23:40) -0.8 (-00:0) 1.1 9.72 (01:00) 5.83 (07:10) 0.2 0.2 0 0 0
14-01-2020 4.6 (10:00) -2.3 (-00:0) 1.1 7.78 (23:30) 5.56 (00:40) 0 0 0 0 0
13-01-2020 6 (12:10) -1.4 (-00:0) 2.3 9.44 (23:30) 6.67 (23:30) 0 0 0 0 0
12-01-2020 7.2 (16:20) -1.8 (-00:0) 2.7 8.89 (05:10) 6.11 (04:30) 0 0 0 0 0
11-01-2020 6.7 (14:20) -4.6 (-00:0) 1 8.89 (00:30) 5 (20:40) 0 0 0 0 0
10-01-2020 2.8 (16:00) -2.8 (-00:0) 0 -- (--) -- (--) -- 0 -- 0 0
09-01-2020 7.6 (14:20) 1.6 (00:00) 4.6 19.72 (23:50) 12.78 (23:50) 0 0 0 0 0
08-01-2020 12.4 (15:40) 2.7 (00:00) 7.5 9.17 (01:30) 6.67 (01:30) 0 0 0 0 0
07-01-2020 11.1 (14:50) 4.4 (00:00) 7.8 8.89 (23:00) 6.67 (23:00) 0 0 0 0 0
06-01-2020 10.8 (15:50) 2.5 (00:00) 6.7 9.72 (19:50) 6.94 (20:00) 0 0 0 0 0
05-01-2020 10.3 (13:40) 0 (00:00) 5.2 8.89 (13:20) 5 (02:00) 0 0 0 0 0
04-01-2020 0.5 (23:30) -3.4 (-00:0) -1.5 7.5 (13:10) 5.56 (13:20) 0 0 0 0 0
03-01-2020 6.3 (01:10) -2.5 (-00:0) 1.9 13.06 (15:00) 9.72 (15:00) 0 0 0 0 0
02-01-2020 12.7 (14:10) 3.2 (00:00) 7.9 6.11 (15:00) 4.72 (01:20) 0 0 0 0 0
01-01-2020 13.5 (14:10) 5.6 (00:00) 9.5 8.06 (19:10) 6.11 (19:00) 0 0 0 0 0
31-12-2019 13.4 (13:50) 4.5 (00:00) 8.9 10.28 (01:40) 5 (03:00) 0 0 0 0 0
30-12-2019 12.2 (15:00) 4.5 (00:00) 8.3 7.5 (18:00) 5.56 (18:10) 0 0 0 0 0
29-12-2019 13.3 (13:10) 7.3 (00:00) 10.3 6.11 (13:50) 4.17 (13:50) 0 0 0 0 0
28-12-2019 15.7 (13:40) 8.1 (00:00) 11.9 7.22 (15:10) 5 (15:00) 0 0 0 0 0
27-12-2019 11.7 (14:20) 5.5 (00:00) 8.6 7.5 (04:20) 5.28 (04:10) 0 0 0 0 0
26-12-2019 9.1 (22:10) 3.9 (00:00) 6.5 12.78 (02:50) 9.17 (04:00) 0 0 0 0 0
25-12-2019 15.5 (15:00) 7.2 (00:00) 11.3 8.06 (05:30) 5.28 (05:40) 0 0 0 0 0
24-12-2019 13.1 (15:20) 4.7 (00:00) 8.9 11.67 (04:40) 8.61 (00:20) 0 0 0 0 0

Gráficas

Temp. máximas Temp. mínimas Temp. medias Precipitaciones Rachas de viento máximas Velocidades máximas media en intervalos de 10 minutos

Datos horarios

Fecha y hora oficial Temperatura (ºC) Velocidad del viento (km/h) Dirección del viento Racha (km/h) Dirección de racha Precipitación (mm) Presión (hPa) Tendencia (hPa) Humedad (%)
2020-01-22 23:00:00 -0.6 8 Sudeste 21 Este 0 846.1 0.7 81
2020-01-22 22:00:00 -0.5 13 Este 23 Este 0 845.9 0.8 81
2020-01-22 21:00:00 -0.1 10 Este 17 Sudeste 0 845.7 0.8 81
2020-01-22 20:00:00 0 9 Este 27 Sudeste 0.1 845.4 0.5 81
2020-01-22 19:00:00 0.2 10 Este 26 Este 0 845.1 0.2 81
2020-01-22 18:00:00 0 15 Este 36 Este 0 844.9 -0.4 81
2020-01-22 17:00:00 0.3 16 Este 34 Este 0 844.9 -1.1 81
2020-01-22 16:00:00 0.1 19 Este 37 Sudeste 0 844.9 -1.7 81
2020-01-22 15:00:00 0 21 Este 43 Este 0 845.3 -1.6 81
2020-01-22 14:00:00 -0.5 15 Este 27 Sudeste 0 846 -0.6 81
2020-01-22 13:00:00 -0.7 0 Calma 0 Calma 0 846.6 0.2 81
2020-01-22 12:00:00 -0.9 0 Calma -- -- 0.3 846.9 0.9 81
2020-01-22 11:00:00 -1.2 0 Calma -- -- 0.4 846.6 1 81
2020-01-22 10:00:00 -1.4 0 Calma -- -- 0.2 846.4 1.1 81
2020-01-22 09:00:00 -1.1 7 Este 42 Este 0 846 0.8 81
2020-01-22 08:00:00 -1.1 20 Este 44 Este 0 845.6 0.5 81
2020-01-22 07:00:00 -1.1 17 Este 37 Este 0 845.3 -0.1 81
2020-01-22 06:00:00 -1 21 Este 49 Este 0 845.2 -0.2 81
2020-01-22 05:00:00 -0.9 26 Este 51 Sudeste 0 845.1 -0.5 81
2020-01-22 04:00:00 -0.5 23 Este 40 Sudeste 0 845.4 -0.6 81
2020-01-22 03:00:00 -0.6 23 Este 42 Sudeste 0 845.4 -0.6 81
2020-01-22 02:00:00 -0.2 22 Este 48 Sudeste 0 845.6 0.1 81
2020-01-22 01:00:00 -0.3 21 Este 37 Sudeste 0 846 0.6 81
2020-01-22 00:00:00 0 19 Este 38 Este 0 846 1.1 81
2020-01-21 23:00:00 -0.2 16 Este 44 Este 0 845.5 0.8 81
2020-01-21 22:00:00 -0.6 21 Este 47 Sudeste 0 845.4 0.7 81
2020-01-21 21:00:00 -0.5 24 Este 50 Este 0.1 844.9 0 81
2020-01-21 20:00:00 -0.1 24 Este 53 Este 0.2 844.7 -0.1 81
2020-01-21 19:00:00 0.4 20 Este 55 Este 0.5 844.7 -0.1 81
2020-01-21 18:00:00 -0.3 6 Este 23 Este 2.2 844.9 -0.1 81
2020-01-21 17:00:00 -0.2 5 Sudeste 34 Sudeste 0.9 844.8 -1 81
2020-01-21 16:00:00 0.2 21 Este 39 Este 0 844.8 -1.5 81
2020-01-21 15:00:00 -0.5 14 Este 42 Sudeste 0 845 -2 81
2020-01-21 14:00:00 -0.6 16 Sudeste 41 Sudeste 0.2 845.8 -1.2 81
2020-01-21 13:00:00 -0.6 15 Este 38 Este 2.9 846.3 -1.1 80
2020-01-21 12:00:00 -1 0 Calma -- -- 0.6 847 -0.6 80
2020-01-21 11:00:00 -3.7 0 Calma -- -- 0.6 847 -0.5 79
2020-01-21 10:00:00 -3.9 0 Calma -- -- 0.1 847.4 -0.4 79
2020-01-21 09:00:00 -3.7 0 Calma -- -- 0.2 847.6 -0.3 79
2020-01-21 08:00:00 -1.2 0 Calma -- -- 0 847.5 -0.8 80
2020-01-21 07:00:00 -1.2 0 Calma -- -- 0 847.8 -1.2 80
2020-01-21 06:00:00 -2.4 0 Calma -- -- 0.1 847.9 -1.7 79
2020-01-21 05:00:00 -1.3 0 Calma -- -- 0.2 848.3 -1.6 80
2020-01-21 04:00:00 -1.4 0 Calma -- -- 0.1 849 -1.5 80
2020-01-21 03:00:00 -1.6 0 Calma -- -- 0.5 849.6 -1 80
2020-01-21 02:00:00 -1.5 0 Calma -- -- 0.6 849.9 -0.4 80
2020-01-21 01:00:00 -1.8 0 Calma -- -- 0.1 850.5 0.2 80
2020-01-21 00:00:00 -1.8 0 Calma -- -- 0 850.6 0.6 80
2020-01-20 23:00:00 -1.9 0 Calma -- -- 0.4 850.3 0.4 79
2020-01-20 22:00:00 -2 0 Calma -- -- 0.5 850.3 0.7 79
2020-01-20 21:00:00 -2.2 0 Calma -- -- 0.6 850 0.8 79
2020-01-20 20:00:00 -2.4 0 Calma -- -- 0.2 849.9 0.7 79
2020-01-20 19:00:00 -2.2 0 Calma -- -- 0.1 849.6 0.2 77
2020-01-20 18:00:00 -2.3 0 Calma -- -- 0 849.2 -0.5 73
2020-01-20 17:00:00 -2.5 0 Calma -- -- 0.2 849.2 -0.9 77
2020-01-20 16:00:00 -5.9 0 Calma -- -- 0.3 849.4 -1.1 75
2020-01-20 15:00:00 -6.2 0 Calma -- -- 0.5 849.7 -1.1 74
2020-01-20 14:00:00 -6.6 0 Calma -- -- 0 850.1 -0.8 72
2020-01-20 13:00:00 -7.2 0 Calma -- -- 0 850.5 0.3 72
2020-01-20 12:00:00 -7.7 0 Calma -- -- 0 850.8 1 73
2020-01-20 11:00:00 -7.9 0 Calma -- -- 0 850.9 1.4 73
2020-01-20 10:00:00 -8.5 0 Calma -- -- 0 850.2 0.8 73
2020-01-20 09:00:00 -9.2 0 Calma -- -- 0 849.8 0.5 73
2020-01-20 08:00:00 -9.2 0 Calma -- -- 0 849.5 -0.5 73
2020-01-20 07:00:00 -9.1 0 Calma -- -- 0 849.4 -0.9 73
2020-01-20 06:00:00 -9 0 Calma -- -- 0 849.3 -1.5 73
2020-01-20 05:00:00 -8.9 0 Calma -- -- 0 850 -1.3 73
2020-01-20 04:00:00 -8.7 0 Calma -- -- 0 850.3 -1.3 73
2020-01-20 03:00:00 -8.5 0 Calma -- -- 0 850.8 -0.8 73
2020-01-20 02:00:00 -8.2 0 Calma -- -- 0 851.3 -0.1 73
2020-01-20 01:00:00 -7.6 0 Calma -- -- 0 851.6 0.7 73
2020-01-20 00:00:00 -7.3 0 Calma -- -- 0 851.6 1.4 74
2020-01-19 23:00:00 -7 0 Calma -- -- 0 851.4 1.8 76
2020-01-19 22:00:00 -6.8 0 Calma -- -- 0 850.9 1.7 77
2020-01-19 21:00:00 -6.6 0 Calma -- -- 0 850.2 1.7 77
2020-01-19 20:00:00 -5.8 0 Calma -- -- 0 849.6 0.7 78
2020-01-19 19:00:00 -5.2 0 Calma -- -- 0 849.2 0 78
2020-01-19 18:00:00 -4.2 0 Calma -- -- 0 848.5 -1.1 79
2020-01-19 17:00:00 -3.1 0 Calma -- -- 0 848.9 -1.1 80
2020-01-19 16:00:00 -2.5 0 Calma -- -- 0 849.2 -0.9 80
2020-01-19 15:00:00 -2.8 0 Calma -- -- 0 849.6 -0.3 80
2020-01-19 14:00:00 -3 0 Calma -- -- 0 850 1.5 80
2020-01-19 13:00:00 -2.8 0 Calma -- -- 0 850.1 2.2 80
2020-01-19 12:00:00 -2.9 0 Calma -- -- 0 849.9 2.6 80
2020-01-19 11:00:00 -2.3 0 Calma -- -- 0 848.5 2.7 81
2020-01-19 10:00:00 -1.9 0 Calma -- -- 0 847.9 1.6 81
2020-01-19 09:00:00 -1.9 0 Calma -- -- 0.1 847.3 -0.1 81
2020-01-19 08:00:00 -2.1 0 Calma -- -- 0 845.8 -1.9 81
2020-01-19 07:00:00 -1.4 0 Calma -- -- 0 846.3 -1 81
2020-01-19 06:00:00 -1.5 0 Calma -- -- 0 847.4 0.5 81
2020-01-19 05:00:00 -1.2 0 Calma 42 Noroeste 0 847.7 1.7 81
2020-01-19 04:00:00 -1 27 Noroeste 55 Noroeste 0.5 847.3 0.5 81
2020-01-19 03:00:00 -0.8 33 Noroeste 66 Noroeste 0 846.9 -0.1 81
2020-01-19 02:00:00 -0.9 43 Noroeste 67 Noroeste 0.4 846 -1.4 81
2020-01-19 01:00:00 -0.4 42 Noroeste 68 Noroeste 0.3 846.8 -0.9 81
2020-01-19 00:00:00 0 41 Noroeste 66 Noroeste 0 847 -0.8 81
2020-01-18 23:00:00 0.5 44 Noroeste 72 Noroeste 0.5 847.4 -0.2 81
2020-01-18 22:00:00 1.2 39 Noroeste 69 Noroeste 0.1 847.7 -1.2 81
2020-01-18 21:00:00 1.4 35 Noroeste 78 Noroeste 0.3 847.8 -1.2 81
2020-01-18 20:00:00 2.7 41 Noroeste 76 Oeste 0.1 847.6 -2.1 64
2020-01-18 19:00:00 1.5 19 Noroeste 28 Oeste 0 848.9 -1.5 82
2020-01-18 18:00:00 1.5 5 Sudoeste 20 Sudoeste 0 849 -2.5 82
2020-01-18 17:00:00 1.7 9 Este 22 Este 0 849.7 -2.8 82
2020-01-18 16:00:00 1 14 Este 24 Este 0 850.4 -3.3 82
2020-01-18 15:00:00 1.2 15 Este 27 Este 0 851.5 -3.2 82
2020-01-18 14:00:00 0.9 15 Este 23 Este 0.2 852.5 -2.3 82
2020-01-18 13:00:00 0.6 13 Este 26 Este 0.3 853.7 -1.4 82
2020-01-18 12:00:00 0.1 20 Este 33 Este 0.2 854.7 -0.8 82
2020-01-18 11:00:00 -0.5 17 Sudeste 34 Este 0.4 854.8 -0.7 82
2020-01-18 10:00:00 -0.6 18 Este 27 Este 0.7 855.1 -0.8 82
2020-01-18 09:00:00 -0.6 14 Este 29 Este 0 855.5 -0.4 81
2020-01-18 08:00:00 -1 14 Este 26 Este 0 855.5 -0.9 79
2020-01-18 07:00:00 0.2 10 Sudeste 18 Sudeste 0 855.9 -0.6 74
2020-01-18 06:00:00 1 12 Oeste 22 Noroeste 0 855.9 -0.5 69
2020-01-18 05:00:00 1.4 10 Oeste 20 Sur 0 856.4 -0.3 72
2020-01-18 04:00:00 1.6 0 Calma 21 Nordeste 0 856.5 -1 67
2020-01-18 03:00:00 0.7 12 Sudeste 26 Este 0 856.4 -1.2 60
2020-01-18 02:00:00 0.4 8 Este 23 Este 0 856.7 -1.4 50
2020-01-18 01:00:00 0.9 15 Sudeste 27 Sudeste 0 857.5 -0.6 44
2020-01-18 00:00:00 1 13 Este 17 Sudeste 0 857.6 -1 48
2020-01-17 23:00:00 2.1 2 Sur 16 Noroeste 0 858.1 0 33
2020-01-17 22:00:00 -0.1 16 Noroeste 26 Noroeste 0 858.1 0.5 76
2020-01-17 21:00:00 -0.1 19 Noroeste 29 Oeste 0 858.6 1.2 78
2020-01-17 20:00:00 -0.2 19 Noroeste 32 Noroeste 0 858.1 1 75
2020-01-17 19:00:00 0.4 21 Noroeste 34 Noroeste 0 857.6 1.1 71
2020-01-17 18:00:00 1.5 23 Noroeste 42 Noroeste 0 857.4 1.1 62
2020-01-17 17:00:00 3 27 Noroeste 49 Noroeste 0 857.1 1 51
2020-01-17 16:00:00 3.7 30 Noroeste 50 Oeste 0 856.5 0 49
2020-01-17 15:00:00 3.5 34 Noroeste 62 Noroeste 0 856.3 -0.2 62
2020-01-17 14:00:00 1.7 39 Noroeste 58 Noroeste 0 856.1 0.5 81
2020-01-17 13:00:00 1.4 35 Noroeste 61 Noroeste 0 856.5 1.2 81
2020-01-17 12:00:00 0.9 41 Noroeste 65 Noroeste 0.2 856.5 1.4 81
2020-01-17 11:00:00 1.5 41 Noroeste 64 Oeste 0.2 855.6 0.8 81
2020-01-17 10:00:00 1.4 33 Noroeste 56 Oeste 0 855.3 0.8 81
2020-01-17 09:00:00 1.6 29 Noroeste 45 Oeste 0 855.1 0.9 70
2020-01-17 08:00:00 0.8 28 Noroeste 40 Noroeste 0 854.8 0.9 73
2020-01-17 07:00:00 0.1 22 Noroeste 34 Oeste 0 854.5 0.5 67
2020-01-17 06:00:00 -0.6 18 Noroeste 27 Noroeste 0 854.2 0.1 78
2020-01-17 05:00:00 -0.5 15 Noroeste 22 Oeste 0 853.9 -0.1 82
2020-01-17 04:00:00 -0.7 12 Noroeste 16 Noroeste 0 854 0.1 82
2020-01-17 03:00:00 0.3 6 Oeste 24 Sudoeste 0 854.1 -0.3 82
2020-01-17 02:00:00 1 6 Este 20 Este 0 854 0.3 82
2020-01-17 01:00:00 1.4 10 Este 21 Sudoeste 0 853.9 0.4 82
2020-01-17 00:00:00 2.1 4 Nordeste 19 Sudeste 0.1 854.4 0.9 82
2020-01-16 23:00:00 2.2 9 Este 26 Nordeste 0 853.7 0.5 82
2020-01-16 22:00:00 2.6 7 Este 29 Este 0 853.5 0.7 82
2020-01-16 21:00:00 2.9 12 Este 36 Este 0 853.5 0.7 82
2020-01-16 20:00:00 3 20 Este 40 Este 0 853.2 0.2 82
2020-01-16 19:00:00 2.8 16 Este 31 Sudeste 0 852.8 0 82
2020-01-16 18:00:00 2.9 15 Este 30 Este 0 852.8 -0.5 82
2020-01-16 17:00:00 3.3 9 Este 31 Sudeste 0 853 -0.4 82
2020-01-16 16:00:00 3.3 15 Este 27 Este 0 852.8 -2.1 82
2020-01-16 15:00:00 3.1 9 Este 41 Este 0 853.3 -1.9 82
2020-01-16 14:00:00 2.9 19 Este 35 Sudeste 0 853.4 -1.3 82
2020-01-16 13:00:00 2.9 6 Sudeste 19 Sudeste 0.1 854.9 0.1 82
2020-01-16 12:00:00 2.6 9 Este 19 Este 0 855.2 0.7 82
2020-01-16 11:00:00 2.5 13 Este 23 Este 0.6 854.7 0.4 82
2020-01-16 10:00:00 2.5 12 Este 21 Este 0.7 854.8 0.4 82
2020-01-16 09:00:00 2.6 8 Este 17 Sudeste 0.4 854.5 0.5 82
2020-01-16 08:00:00 2.6 10 Este 18 Este 0 854.3 0.1 82
2020-01-16 07:00:00 2.6 10 Sudeste 21 Este 0 854.4 0 82
2020-01-16 06:00:00 2.2 12 Este 24 Este 0 854 -0.7 82
2020-01-16 05:00:00 2.6 13 Este 31 Sudoeste 0 854.2 -0.3 82
2020-01-16 04:00:00 4 17 Sudoeste 25 Sudoeste 0 854.4 -0.5 82
2020-01-16 03:00:00 3.7 11 Sur 24 Sur 0 854.7 -0.1 82
2020-01-16 02:00:00 2 11 Este 21 Este 0 854.5 -0.3 82
2020-01-16 01:00:00 1.7 12 Este 20 Este 0 854.9 0.4 82
2020-01-16 00:00:00 1.6 10 Sudeste 16 Este 0 854.8 0.4 82
2020-01-15 23:00:00 1.7 9 Este 15 Este 0 854.8 0.8 82
2020-01-15 22:00:00 1.7 3 Sudeste 13 Este 0 854.5 0.9 82
2020-01-15 21:00:00 1.4 5 Este 13 Este 0 854.4 1.3 82
2020-01-15 20:00:00 1.3 3 Sudeste 16 Noroeste 0 854 1.3 82
2020-01-15 19:00:00 1.7 6 Nordeste 21 Este 0 853.6 1.3 82
2020-01-15 18:00:00 1.5 12 Este 19 Sudoeste 0 853.1 1 82
2020-01-15 17:00:00 1.8 8 Este 16 Este 0 852.7 0.4 82
2020-01-15 16:00:00 1 13 Este 22 Este 0 852.3 -0.1 82
2020-01-15 15:00:00 1 10 Este 16 Este 0 852.1 0.1 82
2020-01-15 14:00:00 1.2 2 Este 23 Oeste 0 852.3 0.3 82
2020-01-15 13:00:00 0.5 11 Sudeste 27 Este 0 852.4 1.7 82
2020-01-15 12:00:00 0.1 16 Este 26 Este 0 852 1.9 82
2020-01-15 11:00:00 0.4 8 Este 23 Este 0 852 2.6 82
2020-01-15 10:00:00 -0.2 11 Sudeste 26 Este 0 850.7 1.8 82
2020-01-15 09:00:00 -0.8 14 Este 29 Este 0 850.1 1.5 82
2020-01-15 08:00:00 -0.5 18 Este 33 Este 0 849.4 0.4 82
2020-01-15 07:00:00 -0.3 17 Sudeste 32 Este 0 848.9 -0.9 82
2020-01-15 06:00:00 -0.2 18 Este 32 Este 0 848.6 -1.2 82
2020-01-15 05:00:00 0 15 Sudeste 26 Sudeste 0 849 -0.5 82
2020-01-15 04:00:00 0.8 6 Oeste 22 Oeste 0 849.8 0.2 81
2020-01-15 03:00:00 0.6 3 Noroeste 19 Sudeste 0.2 849.8 -0.1 82
2020-01-15 02:00:00 0.7 9 Sudeste 32 Sur 0 849.5 -0.4 82
2020-01-15 01:00:00 0.7 9 Sur 35 Sur 0 849.6 0 82
2020-01-15 00:00:00 1 12 Sur 28 Sudoeste 0 849.9 0.4 78
2020-01-14 23:00:00 -0.9 12 Este 19 Nordeste 0 849.9 0.4 82
2020-01-14 22:00:00 -1.5 9 Sudeste 21 Sudeste 0 849.6 0.3 81
2020-01-14 21:00:00 -1.6 9 Este 17 Este 0 849.5 0.6 82
2020-01-14 20:00:00 -1.7 10 Este 13 Este 0 849.5 0.9 82
2020-01-14 19:00:00 -1.6 6 Este 19 Sudeste 0 849.3 0.7 79
2020-01-14 18:00:00 -0.6 14 Sudeste 22 Este 0 848.9 0 77
2020-01-14 17:00:00 0.2 14 Sudeste 20 Este 0 848.6 -0.5 70
2020-01-14 16:00:00 1.3 8 Este 14 Sudeste 0 848.6 -1.1 64
2020-01-14 15:00:00 2 9 Sudeste 16 Este 0 848.9 -1.2 60
2020-01-14 14:00:00 3.2 6 Noroeste 19 Oeste 0 849.1 -0.7 47
2020-01-14 13:00:00 1.9 14 Noroeste 21 Noroeste 0 849.7 0.2 50
2020-01-14 12:00:00 0.9 8 Noroeste 15 Este 0 850.1 0.9 50
2020-01-14 11:00:00 1.8 10 Este 15 Este 0 849.8 0.7 46
2020-01-14 10:00:00 4.5 6 Sudeste 10 Sudeste 0 849.5 0.6 24
2020-01-14 09:00:00 2.9 6 Sudeste 8 Sudeste 0 849.2 0.4 23
2020-01-14 08:00:00 1.5 7 Sudeste 9 Sudeste 0 849.1 0 24
2020-01-14 07:00:00 2 4 Noroeste 9 Oeste 0 848.9 -0.5 24
2020-01-14 06:00:00 1.1 7 Oeste 12 Noroeste 0 848.8 -0.7 23
2020-01-14 05:00:00 2.2 7 Noroeste 12 Noroeste 0 849.1 -0.7 22
2020-01-14 04:00:00 1 6 Noroeste 15 Noroeste 0 849.4 -0.8 22
2020-01-14 03:00:00 0.5 13 Oeste 21 Oeste 0 849.5 -1.2 29
2020-01-14 02:00:00 -1.3 16 Noroeste 24 Noroeste 0 849.8 -0.9 45
2020-01-14 01:00:00 -0.8 16 Oeste 28 Oeste 0 850.2 -0.3 47
2020-01-14 00:00:00 -0.2 19 Oeste 34 Oeste 0 850.7 0.2 45
2020-01-13 23:00:00 0.6 9 Noroeste 18 Noroeste 0 850.7 0.1 37
2020-01-13 22:00:00 -0.6 12 Este 21 Este 0 850.5 -0.2 71
2020-01-13 21:00:00 -0.7 15 Este 19 Este 0 850.5 -0.2 74
2020-01-13 20:00:00 -1.2 15 Este 17 Este 0 850.6 -0.3 77
2020-01-13 19:00:00 -0.8 13 Este 16 Este 0 850.7 -0.2 74
2020-01-13 18:00:00 0 12 Este 14 Este 0 850.7 -0.4 69
2020-01-13 17:00:00 1.6 8 Este 10 Este 0 850.9 -0.9 56
2020-01-13 16:00:00 4.4 7 Oeste 13 Oeste 0 850.9 -1.4 32
2020-01-13 15:00:00 4.2 10 Noroeste 27 Oeste 0 851.1 -2 30
2020-01-13 14:00:00 3.5 19 Noroeste 30 Noroeste 0 851.8 -1 29
2020-01-13 13:00:00 4 12 Noroeste 21 Noroeste 0 852.3 -0.4 24
2020-01-13 12:00:00 4.8 5 Este 13 Este 0 853.1 0.3 22
2020-01-13 11:00:00 4.6 8 Este 11 Este 0 852.8 0 17
2020-01-13 10:00:00 4.1 5 Este 10 Este 0 852.7 -0.3 15
2020-01-13 09:00:00 2.1 9 Este 11 Este 0 852.8 -0.4 17
2020-01-13 08:00:00 2.9 8 Este 10 Este 0 852.8 -0.8 16
2020-01-13 07:00:00 3.5 6 Este 9 Este 0 853 -1 16
2020-01-13 06:00:00 2.3 9 Este 13 Este 0 853.2 -1.5 20
2020-01-13 05:00:00 3.7 9 Este 13 Este 0 853.6 -1.2 18
2020-01-13 04:00:00 4.1 7 Este 15 Este 0 854 -1.5 22
2020-01-13 03:00:00 2.7 6 Este 15 Este 0 854.7 -1.2 30
2020-01-13 02:00:00 2.3 13 Sudeste 17 Sudeste 0 854.8 -1.4 29
2020-01-13 01:00:00 2.8 13 Sudeste 18 Sudeste 0 855.5 -0.7 30
2020-01-13 00:00:00 2.2 14 Sudeste 17 Sudeste 0 855.9 -0.8 33
2020-01-12 23:00:00 2.8 13 Este 16 Sudeste 0 856.2 -0.7 26
2020-01-12 22:00:00 4.2 2 Noroeste 9 Oeste 0 856.2 -0.3 12
2020-01-12 21:00:00 3 7 Oeste 13 Oeste 0 856.7 0.6 23
2020-01-12 20:00:00 1.7 12 Oeste 14 Noroeste 0 856.9 0.8 26
2020-01-12 19:00:00 2.5 7 Oeste 10 Noroeste 0 856.5 0.5 25
2020-01-12 18:00:00 2.1 9 Oeste 16 Noroeste 0 856.1 -0.1 24
2020-01-12 17:00:00 5 11 Noroeste 16 Noroeste 0 856.1 -0.6 22
2020-01-12 16:00:00 6.9 6 Oeste 23 Noroeste 0 856 -1.5 18
2020-01-12 15:00:00 5.4 17 Oeste 28 Oeste 0 856.2 -1.8 18
2020-01-12 14:00:00 5.3 19 Noroeste 28 Noroeste 0 856.7 -1.1 14
2020-01-12 13:00:00 5 17 Noroeste 25 Noroeste 0 857.5 0.3 12
2020-01-12 12:00:00 5.3 11 Noroeste 16 Noroeste 0 858 1 12
2020-01-12 11:00:00 3.5 10 Oeste 15 Noroeste 0 857.8 0.8 12
2020-01-12 10:00:00 2.6 9 Noroeste 19 Oeste 0 857.2 0.5 12
2020-01-12 09:00:00 0.2 15 Oeste 24 Oeste 0 857 0.5 15
2020-01-12 08:00:00 0.2 14 Oeste 22 Oeste 0 857 0.3 15
2020-01-12 07:00:00 0 17 Oeste 28 Oeste 0 856.7 -0.3 18
2020-01-12 06:00:00 -0.6 19 Oeste 32 Oeste 0 856.5 -0.4 19
2020-01-12 05:00:00 0 21 Oeste 30 Noroeste 0 856.7 -0.2 19
2020-01-12 04:00:00 -1.4 19 Noroeste 22 Oeste 0 857 -0.2 24
2020-01-12 03:00:00 0 16 Oeste 21 Oeste 0 856.9 -0.4 22
2020-01-12 02:00:00 0.2 12 Oeste 16 Oeste 0 856.9 -0.5 22
2020-01-12 01:00:00 1.4 3 Noroeste 13 Sudeste 0 857.2 -0.4 25
2020-01-12 00:00:00 1.8 9 Sudeste 12 Sudeste 0 857.3 -0.4 26
2020-01-11 23:00:00 1 7 Oeste 19 Oeste 0 857.4 0.1 19
2020-01-11 22:00:00 0.3 15 Oeste 24 Oeste 0 857.6 0.7 37
2020-01-11 21:00:00 -0.3 18 Noroeste 23 Oeste 0 857.7 0.9 54
2020-01-11 20:00:00 -0.1 17 Oeste 22 Oeste 0 857.3 0.6 50
2020-01-11 19:00:00 0.1 14 Noroeste 17 Oeste 0 856.9 0.1 47
2020-01-11 18:00:00 2 7 Oeste 9 Oeste 0 856.8 0 38
2020-01-11 17:00:00 4.4 7 Oeste 15 Oeste 0 856.7 -0.6 33
2020-01-11 16:00:00 5.2 10 Noroeste 18 Noroeste 0 856.8 -1.1 36
2020-01-11 15:00:00 5.3 8 Noroeste 14 Noroeste 0 856.8 -1.5 31
2020-01-11 14:00:00 4.8 5 Este 18 Este 0 857.3 -0.8 18
2020-01-11 13:00:00 4.1 10 Sudeste 21 Sudeste 0 857.9 0.3 20
2020-01-11 12:00:00 3.3 12 Este 22 Sudeste 0 858.3 1.1 23
2020-01-11 11:00:00 1.9 10 Este 17 Este 0 858.1 1 33
2020-01-11 10:00:00 0.5 9 Sudeste 13 Este 0 857.6 0.8 36
2020-01-11 09:00:00 -2.3 0 Calma 11 Noroeste 0 857.2 0.6 50
2020-01-11 08:00:00 -4 10 Noroeste 16 Oeste 0 857.1 0.2 74
2020-01-11 07:00:00 -4.1 10 Oeste 13 Oeste 0 856.8 -0.5 68
2020-01-11 06:00:00 -3.4 9 Oeste 14 Oeste 0 856.6 -0.6 77
2020-01-11 05:00:00 -3.8 8 Noroeste 20 Oeste 0 856.9 -0.1 81
2020-01-11 04:00:00 -3.3 14 Noroeste 26 Oeste 0 857.3 0.3 82
2020-01-11 03:00:00 -3.1 17 Oeste 26 Oeste 0 857.2 -0.3 82
2020-01-11 02:00:00 -2.9 14 Noroeste 18 Noroeste 0 857 -0.2 82
2020-01-11 01:00:00 -2.8 14 Oeste 32 Oeste 0 857 0.1 81
2020-01-11 00:00:00 -2.7 14 Oeste 22 Noroeste 0 857.5 0.6 81
2020-01-10 23:00:00 -2.5 16 Noroeste 23 Noroeste 0 857.2 0.6 78
2020-01-10 22:00:00 -1.5 15 Noroeste 30 Noroeste 0 856.9 0.6 72
2020-01-10 21:00:00 -1.2 19 Noroeste 37 Noroeste 0 856.9 1 67
2020-01-10 20:00:00 -1.1 15 Noroeste 31 Noroeste 0 856.6 1.1 65
2020-01-10 19:00:00 -0.6 17 Noroeste 36 Noroeste 0 856.3 1.2 60
2020-01-10 18:00:00 -0.1 18 Noroeste 37 Noroeste 0 855.9 1 56
2020-01-10 17:00:00 0.2 14 Noroeste 31 Noroeste 0 855.5 0.4 52
2020-01-10 16:00:00 2.3 15 Noroeste 33 Noroeste 0 855.1 -0.6 43
2020-01-10 15:00:00 2 19 Noroeste 45 Noroeste 0 854.9 -0.8 46
2020-01-10 14:00:00 0.6 14 Noroeste 57 Noroeste 0 855.1 -0.4 60
2020-01-10 13:00:00 -1 24 Noroeste 44 Noroeste 0 855.7 -- 81
2020-01-10 12:00:00 -0.7 6 Noroeste 19 Norte 0 855.7 1 82
2020-01-10 11:00:00 -1.3 0 Calma -- -- -- 855.5 1.6 81
2020-01-10 10:00:00 -- -- -- -- -- -- -- -- --
2020-01-10 09:00:00 -2.2 13 Noroeste 34 Noroeste 0 854.7 2.4 81
2020-01-10 08:00:00 -2.3 23 Noroeste 49 Noroeste 0 853.9 2.1 81
2020-01-10 07:00:00 -2.2 33 Noroeste 62 Noroeste 0 852.8 1 81
2020-01-10 06:00:00 -1.9 39 Noroeste 69 Noroeste 0 852.3 0.7 81
2020-01-10 05:00:00 -1.6 48 Noroeste 75 Noroeste 0 851.8 0.2 82
2020-01-10 04:00:00 -1 46 Noroeste 73 Oeste 0 851.8 -0.3 82
2020-01-10 03:00:00 -0.5 46 Noroeste 70 Noroeste 0 851.6 -0.7 82
2020-01-10 02:00:00 -0.1 47 Noroeste 71 Noroeste 0 851.6 -1 82
2020-01-10 01:00:00 0.7 48 Noroeste 73 Noroeste 0 852.1 -0.6 82
2020-01-10 00:00:00 1.6 44 Noroeste 71 Noroeste 0 852.3 -0.7 82
2020-01-09 23:00:00 2.5 42 Noroeste 66 Noroeste 0 852.6 0 82
2020-01-09 22:00:00 4.2 31 Noroeste 58 Noroeste 0 852.7 0 81
2020-01-09 21:00:00 4.2 33 Noroeste 61 Noroeste 0 853 -0.5 81
2020-01-09 20:00:00 4.6 40 Noroeste 70 Noroeste 0 852.6 -0.4 81
2020-01-09 19:00:00 5.3 39 Noroeste 63 Noroeste 0 852.7 -0.2 80
2020-01-09 18:00:00 5.7 19 Noroeste 28 Noroeste 0 853.5 0.5 75
2020-01-09 17:00:00 6.5 16 Noroeste 34 Noroeste 0 853 -0.9 73
2020-01-09 16:00:00 6.6 25 Noroeste 46 Noroeste 0 852.9 -1.4 70
2020-01-09 15:00:00 6.6 23 Noroeste 48 Noroeste 0 853 -2.1 68
2020-01-09 14:00:00 6.8 32 Noroeste 48 Noroeste 0 853.9 -1.3 59
2020-01-09 13:00:00 5.5 33 Noroeste 48 Oeste 0 854.3 -0.8 60
2020-01-09 12:00:00 6.1 21 Noroeste 30 Oeste 0 855.1 0.5 54
2020-01-09 11:00:00 4.8 17 Oeste 32 Oeste 0 855.2 0.5 52
2020-01-09 10:00:00 2.9 19 Noroeste 26 Oeste 0 855.1 0.2 57
2020-01-09 09:00:00 2.2 10 Este 12 Este 0 854.6 -0.3 58
2020-01-09 08:00:00 3.1 0 Calma 9 Noroeste 0 854.7 -0.5 41
2020-01-09 07:00:00 3.9 6 Sudeste 14 Sudeste 0 854.9 -0.9 43
2020-01-09 06:00:00 3.3 12 Sudeste 15 Sudeste 0 854.9 -1.1 45
2020-01-09 05:00:00 3.5 13 Sudeste 15 Este 0 855.2 -1 46
2020-01-09 04:00:00 3 12 Este 14 Este 0 855.8 -0.7 46
2020-01-09 03:00:00 3.5 10 Este 14 Este 0 856 -1 44
2020-01-09 02:00:00 3.4 12 Este 15 Sudeste 0 856.2 -0.8 41
2020-01-09 01:00:00 4.1 13 Sudeste 19 Este 0 856.5 -0.5 37
2020-01-09 00:00:00 4.3 15 Sudeste 19 Sudeste 0 857 0 35
2020-01-08 23:00:00 5.1 13 Sudeste 18 Sudeste 0 857 0.1 35
2020-01-08 22:00:00 6.1 13 Sudeste 17 Sudeste 0 857 -0.1 33
2020-01-08 21:00:00 6.3 12 Sudeste 16 Sudeste 0 857 0 33
2020-01-08 20:00:00 6.5 9 Este 13 Este 0 856.9 0.4 33
2020-01-08 19:00:00 6.7 9 Sudeste 10 Sudeste 0 857.1 0.4 31
2020-01-08 18:00:00 7.9 4 Noroeste 8 Oeste 0 857 0.4 25
2020-01-08 17:00:00 10 0 Calma 10 Noroeste 0 856.5 -0.5 25
2020-01-08 16:00:00 11.6 7 Noroeste 13 Oeste 0 856.7 -1 20
2020-01-08 15:00:00 11.6 6 Este 12 Noroeste 0 856.6 -1.7 18
2020-01-08 14:00:00 11.3 8 Noroeste 13 Noroeste 0 857 -1.7 16
2020-01-08 13:00:00 11.2 6 Noroeste 9 Noroeste 0 857.7 -0.7 15
2020-01-08 12:00:00 10.5 5 Oeste 9 Oeste 0 858.3 0.5 14
2020-01-08 11:00:00 6.9 9 Noroeste 19 Oeste 0 858.7 1.1 13
2020-01-08 10:00:00 5.5 11 Oeste 21 Oeste 0 858.4 0.9 12
2020-01-08 09:00:00 5.6 14 Oeste 22 Oeste 0 857.8 0.2 12
2020-01-08 08:00:00 6.3 13 Oeste 17 Oeste 0 857.6 -0.1 12
2020-01-08 07:00:00 4.9 13 Noroeste 19 Oeste 0 857.5 -0.5 12
2020-01-08 06:00:00 6 13 Noroeste 16 Oeste 0 857.6 -0.5 12
2020-01-08 05:00:00 5.9 13 Oeste 20 Noroeste 0 857.7 -0.6 12
2020-01-08 04:00:00 3.7 18 Noroeste 27 Noroeste 0 858 -0.5 19
2020-01-08 03:00:00 3.6 22 Noroeste 31 Oeste 0 858.1 -0.7 18
2020-01-08 02:00:00 4.2 23 Oeste 33 Oeste 0 858.3 -0.8 15
2020-01-08 01:00:00 5.9 23 Oeste 31 Oeste 0 858.5 -0.7 12
2020-01-08 00:00:00 5.9 22 Oeste 32 Oeste 0 858.8 -0.2 12
2020-01-07 23:00:00 6.6 24 Oeste 32 Oeste 0 859.1 0 13
2020-01-07 22:00:00 5.9 18 Oeste 27 Oeste 0 859.2 0.2 15
2020-01-07 21:00:00 6.2 20 Oeste 27 Oeste 0 859 0.3 14
2020-01-07 20:00:00 5.5 17 Oeste 23 Oeste 0 859.1 0.3 15
2020-01-07 19:00:00 5.3 18 Oeste 23 Oeste 0 859 0.1 18
2020-01-07 18:00:00 6.2 17 Oeste 23 Oeste 0 858.7 -0.1 18
2020-01-07 17:00:00 9.4 17 Oeste 28 Noroeste 0 858.8 -0.4 15
2020-01-07 16:00:00 9.9 21 Noroeste 31 Noroeste 0 858.9 -1 12
2020-01-07 15:00:00 10.9 21 Noroeste 32 Oeste 0 858.8 -1.1 12
2020-01-07 14:00:00 10.3 19 Noroeste 31 Noroeste 0 859.2 -0.7 14
2020-01-07 13:00:00 9.8 18 Noroeste 26 Oeste 0 859.9 0.2 15
2020-01-07 12:00:00 8.7 18 Noroeste 22 Oeste 0 859.9 0.8 15
2020-01-07 11:00:00 7.3 17 Noroeste 22 Noroeste 0 859.9 1 16
2020-01-07 10:00:00 5 15 Noroeste 18 Noroeste 0 859.7 1.1 18
2020-01-07 09:00:00 5.2 13 Oeste 18 Noroeste 0 859.1 0.3 15
2020-01-07 08:00:00 5.1 10 Oeste 12 Oeste 0 858.9 0 14
2020-01-07 07:00:00 5.2 11 Noroeste 12 Noroeste 0 858.6 -0.2 14
2020-01-07 06:00:00 5.9 8 Oeste 10 Oeste 0 858.8 -0.4 15
2020-01-07 05:00:00 6.2 6 Noroeste 12 Sudeste 0 858.9 0.2 14
2020-01-07 04:00:00 6.6 9 Sudeste 11 Sudeste 0 858.8 0.1 13
2020-01-07 03:00:00 5.8 8 Oeste 13 Noroeste 0 859.2 0.3 12
2020-01-07 02:00:00 6.4 8 Oeste 14 Oeste 0 858.7 0.1 12
2020-01-07 01:00:00 5.9 10 Oeste 17 Oeste 0 858.7 0.1 15
2020-01-07 00:00:00 4.8 12 Oeste 17 Oeste 0 858.9 0.6 21
2020-01-06 23:00:00 4.7 13 Oeste 23 Oeste 0 858.6 0.7 24
2020-01-06 22:00:00 3.3 20 Oeste 28 Oeste 0 858.6 1.5 36
2020-01-06 21:00:00 2.8 22 Noroeste 32 Noroeste 0 858.3 1.4 34
2020-01-06 20:00:00 5.4 25 Oeste 35 Oeste 0 857.9 1.3 17
2020-01-06 19:00:00 5.8 18 Oeste 26 Oeste 0 857.1 0.7 16
2020-01-06 18:00:00 5.8 21 Noroeste 28 Oeste 0 856.9 0.7 17
2020-01-06 17:00:00 8.9 18 Noroeste 26 Oeste 0 856.6 0.1 15
2020-01-06 16:00:00 10.2 12 Noroeste 22 Noroeste 0 856.4 -0.9 12
2020-01-06 15:00:00 9.9 11 Noroeste 28 Noroeste 0 856.2 -1.5 13
2020-01-06 14:00:00 8.6 21 Oeste 29 Noroeste 0 856.5 -0.9 14
2020-01-06 13:00:00 8.3 18 Oeste 28 Noroeste 0 857.3 0.2 16
2020-01-06 12:00:00 9.7 8 Noroeste 14 Este 0 857.7 0.8 17
2020-01-06 11:00:00 8.6 10 Este 15 Este 0 857.4 1 13
2020-01-06 10:00:00 7.1 0 Calma 12 Oeste 0 857.1 1.4 17